Time;durP1;ratioP1;P1;durP2;ratioP2;P2;SDS_P1;SDS_P2;PMS_P1;PMS_P2;Temp;Humidity;BMP_temperature;BMP_pressure;BME280_temperature;BME280_humidity;BME280_pressure;Samples;Min_cycle;Max_cycle;Signal;HPM_P1;HPM_P2
2021/08/10 00:00:06;;;;;;;1.50;1.00;;;16.30;98.20;;;;;;5033384;28;20491;-80
2021/08/10 00:02:33;;;;;;;1.50;0.90;;;16.30;98.20;;;;;;5029052;28;20979;-79
2021/08/10 00:05:00;;;;;;;1.53;1.00;;;16.20;98.20;;;;;;5033007;28;20499;-80
2021/08/10 00:07:28;;;;;;;1.50;0.90;;;16.20;98.20;;;;;;5028435;28;20458;-79
2021/08/10 00:09:55;;;;;;;1.50;1.00;;;16.20;98.20;;;;;;5033823;28;20479;-79
2021/08/10 00:12:22;;;;;;;1.50;0.90;;;16.20;98.20;;;;;;5037513;28;20526;-79
2021/08/10 00:14:49;;;;;;;1.50;1.00;;;16.10;98.20;;;;;;5043643;28;20451;-80
2021/08/10 00:17:16;;;;;;;1.53;1.00;;;16.10;98.20;;;;;;5037236;28;20519;-77
2021/08/10 00:19:43;;;;;;;1.50;1.10;;;16.10;98.20;;;;;;5030854;28;20498;-78
2021/08/10 00:22:11;;;;;;;1.50;1.00;;;16.10;98.20;;;;;;5030968;28;20498;-78
2021/08/10 00:24:39;;;;;;;1.50;1.00;;;16.00;98.20;;;;;;5031862;28;20509;-79
2021/08/10 00:27:06;;;;;;;1.50;0.93;;;16.00;98.20;;;;;;5032960;28;20455;-79
2021/08/10 00:29:33;;;;;;;1.57;1.00;;;16.00;98.20;;;;;;5038068;28;20548;-77
2021/08/10 00:32:00;;;;;;;1.53;1.00;;;15.90;98.20;;;;;;5039993;28;20463;-78
2021/08/10 00:34:29;;;;;;;1.53;1.00;;;15.90;98.20;;;;;;5034907;28;20954;-80
2021/08/10 00:36:56;;;;;;;1.57;1.00;;;15.90;98.20;;;;;;5017992;28;20478;-77
2021/08/10 00:39:23;;;;;;;1.50;1.00;;;15.90;98.20;;;;;;5033667;28;20911;-77
2021/08/10 00:41:52;;;;;;;1.50;0.90;;;15.80;98.20;;;;;;5048727;28;20466;-79
2021/08/10 00:44:18;;;;;;;1.53;1.00;;;15.80;98.20;;;;;;5034358;28;20629;-79
2021/08/10 00:46:45;;;;;;;1.80;1.60;;;15.80;98.20;;;;;;5033582;28;20463;-79
2021/08/10 00:49:12;;;;;;;1.60;1.10;;;15.70;98.20;;;;;;5033938;28;20547;-79
2021/08/10 00:51:39;;;;;;;1.50;1.00;;;15.70;98.20;;;;;;5052255;28;20536;-79
2021/08/10 00:54:06;;;;;;;1.60;1.10;;;15.70;98.20;;;;;;5039641;28;20566;-79
2021/08/10 00:56:34;;;;;;;1.53;1.00;;;15.70;98.20;;;;;;5031784;28;20487;-78
2021/08/10 00:59:03;;;;;;;1.57;1.00;;;15.70;98.20;;;;;;5041636;28;20459;-79
2021/08/10 01:01:30;;;;;;;1.50;1.00;;;15.70;98.20;;;;;;5052904;28;20474;-77
2021/08/10 01:03:57;;;;;;;1.57;1.00;;;15.60;98.20;;;;;;5025690;28;20467;-79
2021/08/10 01:06:29;;;;;;;1.50;0.90;;;15.60;98.20;;;;;;5031068;28;20467;-79
2021/08/10 01:09:03;;;;;;;1.50;1.00;;;15.60;98.20;;;;;;5032581;28;20463;-78
2021/08/10 01:11:35;;;;;;;1.50;1.00;;;15.50;98.20;;;;;;5034017;28;20483;-77
2021/08/10 01:14:13;;;;;;;1.50;1.00;;;15.50;98.20;;;;;;5030471;28;20738;-77
2021/08/10 01:16:43;;;;;;;1.53;1.00;;;15.50;98.20;;;;;;5030054;28;20489;-79
2021/08/10 01:19:47;;;;;;;1.50;1.00;;;15.50;98.20;;;;;;5037519;28;20467;-78
2021/08/10 01:22:18;;;;;;;1.50;1.00;;;15.50;98.20;;;;;;5031100;28;20495;-78
2021/08/10 01:24:49;;;;;;;1.53;1.00;;;15.50;98.20;;;;;;5031831;28;20517;-77
2021/08/10 01:27:36;;;;;;;1.50;1.00;;;15.50;98.20;;;;;;5033581;28;20958;-77
2021/08/10 01:30:08;;;;;;;1.60;1.10;;;15.40;98.20;;;;;;5044825;28;20533;-78
2021/08/10 01:32:40;;;;;;;1.53;1.00;;;15.40;98.20;;;;;;5026289;28;20775;-78
2021/08/10 01:35:08;;;;;;;1.53;1.00;;;15.40;98.20;;;;;;5026476;28;20763;-81
2021/08/10 01:37:36;;;;;;;1.50;1.00;;;15.40;98.20;;;;;;5028227;28;20499;-78
2021/08/10 01:40:06;;;;;;;1.57;1.00;;;15.40;98.20;;;;;;5033546;28;20491;-80
2021/08/10 01:42:34;;;;;;;1.50;0.90;;;15.40;98.20;;;;;;5030642;28;20460;-77
2021/08/10 01:45:02;;;;;;;1.50;1.00;;;15.40;98.20;;;;;;5032416;28;20462;-80
2021/08/10 01:47:31;;;;;;;1.50;1.00;;;15.40;98.20;;;;;;5037682;28;20454;-80
2021/08/10 01:50:01;;;;;;;1.57;1.03;;;15.40;98.20;;;;;;5048768;28;20490;-78
2021/08/10 01:52:28;;;;;;;1.50;1.00;;;15.40;98.20;;;;;;5032582;28;20462;-80
2021/08/10 01:54:57;;;;;;;1.57;1.00;;;15.50;98.20;;;;;;5048259;28;20450;-80
2021/08/10 01:57:25;;;;;;;1.53;1.00;;;15.50;98.20;;;;;;5031488;28;20477;-80
2021/08/10 01:59:54;;;;;;;1.50;0.93;;;15.50;98.20;;;;;;5031143;28;20475;-78
2021/08/10 02:02:22;;;;;;;1.50;1.00;;;15.50;98.20;;;;;;5049283;28;20490;-80
2021/08/10 02:04:51;;;;;;;1.53;1.00;;;15.50;98.20;;;;;;5034121;28;20491;-77
2021/08/10 02:07:20;;;;;;;1.53;1.00;;;15.50;98.20;;;;;;5030040;28;20459;-78
2021/08/10 02:09:48;;;;;;;1.50;1.00;;;15.50;98.20;;;;;;5033364;28;20475;-78
2021/08/10 02:12:16;;;;;;;1.50;1.00;;;15.60;98.20;;;;;;5035901;28;20455;-79
2021/08/10 02:14:46;;;;;;;1.50;1.00;;;15.60;98.20;;;;;;5044764;28;20460;-79
2021/08/10 02:17:16;;;;;;;1.50;1.00;;;15.60;98.20;;;;;;5032393;28;20529;-80
2021/08/10 02:19:44;;;;;;;1.53;1.00;;;15.60;98.20;;;;;;5038854;28;20494;-78
2021/08/10 02:22:13;;;;;;;1.50;1.00;;;15.60;98.20;;;;;;5027960;28;20461;-77
2021/08/10 02:24:47;;;;;;;1.53;1.00;;;15.60;98.20;;;;;;5025784;28;20477;-79
2021/08/10 02:27:20;;;;;;;1.50;1.00;;;15.60;98.20;;;;;;5034653;28;20460;-80
2021/08/10 02:32:23;;;;;;;1.50;1.00;;;15.60;98.20;;;;;;5018489;28;20475;-79
2021/08/10 02:34:52;;;;;;;1.50;1.00;;;15.60;98.20;;;;;;5021753;28;20517;-80
2021/08/10 02:37:21;;;;;;;1.50;1.00;;;15.60;98.20;;;;;;5030092;28;21236;-79
2021/08/10 02:39:51;;;;;;;1.57;1.00;;;15.60;98.20;;;;;;5030056;28;20506;-78
2021/08/10 02:42:20;;;;;;;1.50;1.00;;;15.70;98.20;;;;;;5025059;28;20456;-80
2021/08/10 02:44:49;;;;;;;1.57;0.97;;;15.70;98.20;;;;;;5028846;28;20459;-79
2021/08/10 02:47:17;;;;;;;1.57;1.00;;;15.70;98.20;;;;;;5035132;28;20846;-81
2021/08/10 02:49:45;;;;;;;1.50;1.00;;;15.70;98.20;;;;;;5034944;28;20490;-80
2021/08/10 02:52:13;;;;;;;1.50;0.90;;;15.70;98.20;;;;;;5034963;28;20463;-80
2021/08/10 02:54:41;;;;;;;1.60;1.00;;;15.70;98.20;;;;;;5035033;28;20459;-80
2021/08/10 02:57:17;;;;;;;1.50;0.93;;;15.70;98.20;;;;;;5028136;28;20872;-79
2021/08/10 02:59:48;;;;;;;1.50;0.90;;;15.70;98.20;;;;;;5026733;28;20495;-79
2021/08/10 03:02:18;;;;;;;1.50;1.00;;;15.70;98.20;;;;;;5026320;28;20463;-80
2021/08/10 03:04:49;;;;;;;1.50;1.00;;;15.70;98.20;;;;;;5023335;28;21098;-81
2021/08/10 03:07:17;;;;;;;1.50;1.00;;;15.80;98.20;;;;;;5031619;28;20897;-82
2021/08/10 03:09:46;;;;;;;1.53;1.00;;;15.80;98.20;;;;;;5031174;28;20487;-84
2021/08/10 03:12:15;;;;;;;1.50;0.93;;;15.80;98.20;;;;;;5021956;28;20460;-83
2021/08/10 03:14:42;;;;;;;1.53;1.00;;;15.80;98.20;;;;;;5032212;28;20463;-81
2021/08/10 03:17:11;;;;;;;1.53;1.00;;;15.70;98.20;;;;;;5030697;28;20479;-81
2021/08/10 03:19:41;;;;;;;1.57;0.90;;;15.70;98.20;;;;;;5033828;28;20490;-81
2021/08/10 03:22:09;;;;;;;1.50;1.00;;;15.70;98.20;;;;;;5033718;28;20520;-81
2021/08/10 03:24:36;;;;;;;1.50;1.00;;;15.70;98.20;;;;;;5031564;28;20548;-81
2021/08/10 03:27:05;;;;;;;1.50;1.00;;;15.70;98.20;;;;;;5034894;28;20459;-81
2021/08/10 03:29:36;;;;;;;1.50;1.00;;;15.70;98.20;;;;;;5035392;28;20471;-82
2021/08/10 03:32:05;;;;;;;1.50;1.00;;;15.80;98.20;;;;;;5014545;28;20471;-81
2021/08/10 03:34:33;;;;;;;1.53;1.00;;;15.70;98.20;;;;;;5023831;28;20477;-82
2021/08/10 03:37:00;;;;;;;1.53;1.00;;;15.80;98.20;;;;;;5028632;28;20840;-83
2021/08/10 03:39:28;;;;;;;1.50;0.90;;;15.80;98.20;;;;;;5026667;28;20466;-83
2021/08/10 03:41:56;;;;;;;1.53;0.97;;;15.80;98.20;;;;;;5034563;28;20497;-82
2021/08/10 03:44:24;;;;;;;1.50;0.90;;;15.80;98.20;;;;;;5033918;28;21000;-82
2021/08/10 03:46:52;;;;;;;1.50;0.90;;;15.80;98.20;;;;;;5029065;28;20979;-82
2021/08/10 03:49:23;;;;;;;1.50;0.97;;;15.80;98.20;;;;;;5026074;28;20750;-82
2021/08/10 03:51:51;;;;;;;1.50;1.00;;;15.80;98.20;;;;;;5027109;28;20848;-83
2021/08/10 03:54:18;;;;;;;1.50;0.97;;;15.90;98.20;;;;;;5028657;28;20459;-81
2021/08/10 03:56:50;;;;;;;1.50;1.00;;;15.80;98.20;;;;;;5033765;28;20994;-81
2021/08/10 03:59:20;;;;;;;1.50;1.00;;;15.90;98.20;;;;;;5027473;28;20463;-82
2021/08/10 04:01:49;;;;;;;1.50;0.93;;;15.80;98.20;;;;;;5029831;28;20467;-82
2021/08/10 04:04:22;;;;;;;1.50;1.00;;;15.90;98.20;;;;;;5032343;28;20459;-81
2021/08/10 04:06:49;;;;;;;1.50;0.90;;;15.90;98.20;;;;;;5034095;28;20938;-81
2021/08/10 04:09:17;;;;;;;1.50;1.00;;;15.90;98.20;;;;;;5033886;28;20459;-80
2021/08/10 04:11:45;;;;;;;1.50;1.00;;;15.90;98.20;;;;;;5026664;28;20503;-80
2021/08/10 04:14:14;;;;;;;1.57;1.00;;;15.90;98.20;;;;;;5028072;28;20472;-79
2021/08/10 04:16:48;;;;;;;1.53;1.00;;;15.90;98.20;;;;;;5023419;28;20812;-79
2021/08/10 04:19:19;;;;;;;1.57;1.00;;;15.90;98.20;;;;;;5025552;28;20471;-79
2021/08/10 04:22:15;;;;;;;1.57;1.00;;;15.80;98.20;;;;;;5024031;28;20467;-81
2021/08/10 04:24:45;;;;;;;1.50;1.00;;;15.80;98.20;;;;;;5028144;28;20466;-80
2021/08/10 04:27:12;;;;;;;1.50;0.90;;;15.70;98.20;;;;;;5032259;28;20478;-80
2021/08/10 04:29:43;;;;;;;1.53;1.00;;;15.70;98.20;;;;;;5028977;28;20898;-79
2021/08/10 04:32:16;;;;;;;1.53;1.00;;;15.60;98.20;;;;;;5021615;28;20467;-77
2021/08/10 04:34:53;;;;;;;1.50;1.00;;;15.60;98.20;;;;;;5036291;28;20467;-78
2021/08/10 04:37:20;;;;;;;1.50;1.00;;;15.50;98.20;;;;;;5026187;28;20507;-78
2021/08/10 04:39:50;;;;;;;1.60;1.10;;;15.50;98.20;;;;;;5029604;28;20475;-78
2021/08/10 04:42:17;;;;;;;1.50;1.00;;;15.40;98.20;;;;;;5024063;28;20452;-79
2021/08/10 04:44:43;;;;;;;1.50;1.00;;;15.40;98.20;;;;;;5024795;28;20469;-79
2021/08/10 04:47:11;;;;;;;1.50;1.00;;;15.40;98.20;;;;;;5024329;28;20460;-79
2021/08/10 04:49:37;;;;;;;1.50;1.00;;;15.40;98.20;;;;;;5028740;28;20966;-79
2021/08/10 04:52:06;;;;;;;1.50;1.00;;;15.40;98.20;;;;;;5032622;28;20455;-78
2021/08/10 04:54:34;;;;;;;1.50;1.00;;;15.40;98.20;;;;;;5033293;28;20467;-79
2021/08/10 04:57:01;;;;;;;1.50;1.00;;;15.40;98.20;;;;;;5032504;28;20490;-79
2021/08/10 04:59:28;;;;;;;1.57;1.00;;;15.40;98.20;;;;;;5028138;28;20999;-78
2021/08/10 05:01:56;;;;;;;1.50;1.00;;;15.40;98.20;;;;;;5029018;28;20982;-77
2021/08/10 05:04:23;;;;;;;1.50;1.00;;;15.40;98.20;;;;;;5033053;28;20724;-78
2021/08/10 05:06:51;;;;;;;1.53;1.00;;;15.30;98.20;;;;;;5033073;28;20493;-76
2021/08/10 05:09:20;;;;;;;1.50;0.93;;;15.40;98.20;;;;;;5030815;28;20463;-77
2021/08/10 05:11:47;;;;;;;1.53;1.00;;;15.40;98.20;;;;;;5028144;28;20525;-77
2021/08/10 05:14:14;;;;;;;1.50;1.00;;;15.40;98.20;;;;;;5019427;28;20471;-78
2021/08/10 05:16:40;;;;;;;1.50;1.00;;;15.50;98.20;;;;;;5029509;28;20478;-78
2021/08/10 05:19:07;;;;;;;1.50;1.00;;;15.50;98.20;;;;;;5026207;28;20488;-78
2021/08/10 05:21:34;;;;;;;1.50;1.00;;;15.60;98.20;;;;;;5029434;28;20491;-78
2021/08/10 05:24:01;;;;;;;1.50;0.90;;;15.60;98.20;;;;;;5031872;28;20851;-79
2021/08/10 05:26:29;;;;;;;1.50;0.90;;;15.70;98.20;;;;;;5030561;28;20469;-78
2021/08/10 05:28:56;;;;;;;1.53;1.00;;;15.70;98.20;;;;;;5032119;28;20455;-78
2021/08/10 05:31:23;;;;;;;1.57;1.00;;;15.70;98.20;;;;;;5027738;28;20578;-78
2021/08/10 05:33:50;;;;;;;1.53;1.00;;;15.80;98.20;;;;;;5033304;28;20463;-77
2021/08/10 05:36:19;;;;;;;1.50;1.00;;;15.80;98.20;;;;;;5026151;28;20470;-77
2021/08/10 05:38:49;;;;;;;1.57;1.00;;;15.80;98.20;;;;;;5030623;28;20505;-78
2021/08/10 05:41:16;;;;;;;1.50;0.90;;;15.90;98.20;;;;;;5028220;28;20480;-78
2021/08/10 05:43:45;;;;;;;1.50;1.00;;;15.90;98.20;;;;;;5028801;28;20464;-78
2021/08/10 05:46:15;;;;;;;1.50;1.00;;;15.90;98.20;;;;;;5032041;28;20452;-79
2021/08/10 05:48:42;;;;;;;1.57;1.00;;;15.90;98.20;;;;;;5030831;28;21594;-82
2021/08/10 05:51:09;;;;;;;1.50;1.00;;;16.00;98.20;;;;;;5027779;28;21049;-81
2021/08/10 05:53:37;;;;;;;1.50;1.00;;;16.10;98.20;;;;;;5033039;28;20466;-77
2021/08/10 05:56:03;;;;;;;1.53;1.00;;;16.20;98.20;;;;;;5033393;28;20474;-79
2021/08/10 05:58:30;;;;;;;1.57;0.90;;;16.20;98.20;;;;;;5032172;28;20501;-79
2021/08/10 06:00:58;;;;;;;1.50;1.00;;;16.30;98.20;;;;;;5023211;28;20507;-80
2021/08/10 06:03:25;;;;;;;1.50;1.00;;;16.30;98.20;;;;;;5025316;28;20468;-79
2021/08/10 06:05:52;;;;;;;1.50;1.00;;;16.40;98.20;;;;;;5027247;28;20495;-80
2021/08/10 06:08:18;;;;;;;1.53;1.00;;;16.40;98.20;;;;;;5026653;28;20620;-78
2021/08/10 06:10:45;;;;;;;1.53;1.00;;;16.50;98.20;;;;;;5026952;28;20485;-79
2021/08/10 06:13:12;;;;;;;1.50;0.90;;;16.50;98.20;;;;;;5030215;28;20463;-78
2021/08/10 06:15:39;;;;;;;1.50;1.00;;;16.60;98.20;;;;;;5032795;28;20463;-79
2021/08/10 06:18:07;;;;;;;1.50;1.00;;;16.70;98.20;;;;;;5028794;28;20484;-78
2021/08/10 06:20:34;;;;;;;1.50;1.00;;;16.90;98.20;;;;;;5028700;28;20483;-78
2021/08/10 06:23:01;;;;;;;1.50;1.00;;;17.10;98.20;;;;;;5024261;28;20529;-77
2021/08/10 06:25:28;;;;;;;1.50;1.00;;;17.30;98.20;;;;;;5020668;28;20451;-78
2021/08/10 06:27:56;;;;;;;1.60;1.00;;;17.50;98.20;;;;;;5023571;28;20712;-79
2021/08/10 06:30:23;;;;;;;1.50;0.90;;;17.80;98.20;;;;;;5014075;28;20506;-78
2021/08/10 06:32:50;;;;;;;1.50;0.90;;;18.00;98.20;;;;;;5022330;28;20475;-78
2021/08/10 06:35:18;;;;;;;1.53;1.00;;;18.30;98.20;;;;;;5024471;28;21118;-77
2021/08/10 06:37:45;;;;;;;1.53;0.90;;;18.70;98.20;;;;;;5024739;28;20483;-80
2021/08/10 06:40:12;;;;;;;1.57;1.00;;;19.00;98.20;;;;;;5027261;28;20491;-78
2021/08/10 06:42:39;;;;;;;1.50;1.00;;;19.20;98.20;;;;;;5022785;28;20705;-80
2021/08/10 06:45:15;;;;;;;1.53;0.97;;;19.40;98.20;;;;;;5025061;28;20543;-79
2021/08/10 06:47:42;;;;;;;1.53;0.97;;;19.60;98.20;;;;;;5023336;28;20454;-79
2021/08/10 06:50:13;;;;;;;1.60;0.90;;;19.70;98.20;;;;;;5029024;28;20488;-79
2021/08/10 06:52:41;;;;;;;1.50;0.93;;;19.70;98.20;;;;;;5022566;28;20471;-79
2021/08/10 06:55:09;;;;;;;1.53;0.90;;;19.60;98.20;;;;;;5021885;28;20872;-79
2021/08/10 06:57:38;;;;;;;1.53;1.00;;;19.80;98.20;;;;;;5018624;28;20472;-79
2021/08/10 07:00:06;;;;;;;1.50;0.90;;;20.00;98.20;;;;;;5017804;28;20550;-78
2021/08/10 07:02:33;;;;;;;1.50;1.00;;;20.30;98.20;;;;;;5023749;28;20844;-78
2021/08/10 07:05:06;;;;;;;1.57;0.90;;;20.60;98.20;;;;;;5020385;28;20467;-78
2021/08/10 07:07:33;;;;;;;1.53;1.00;;;20.60;98.20;;;;;;5023438;28;20463;-80
2021/08/10 07:10:02;;;;;;;1.50;0.90;;;20.60;98.20;;;;;;5022213;28;20563;-78
2021/08/10 07:12:32;;;;;;;1.53;0.90;;;20.70;98.20;;;;;;5025651;28;20459;-78
2021/08/10 07:15:08;;;;;;;1.60;0.90;;;20.90;98.20;;;;;;5025425;28;20485;-80
2021/08/10 07:17:35;;;;;;;1.50;0.90;;;21.10;98.20;;;;;;5021590;28;20843;-79
2021/08/10 07:20:02;;;;;;;1.53;0.90;;;21.30;98.20;;;;;;5020605;28;20781;-80
2021/08/10 07:22:50;;;;;;;1.50;0.90;;;21.50;98.20;;;;;;5022037;28;20968;-80
2021/08/10 07:25:20;;;;;;;1.50;0.90;;;21.80;98.20;;;;;;5027375;28;20542;-80
2021/08/10 07:27:47;;;;;;;1.53;0.90;;;22.00;98.20;;;;;;5029925;28;20459;-80
2021/08/10 07:30:14;;;;;;;1.53;0.90;;;22.30;98.20;;;;;;5026888;28;20486;-78
2021/08/10 07:32:41;;;;;;;1.53;0.90;;;22.30;97.80;;;;;;5025834;28;20778;-80
2021/08/10 07:35:09;;;;;;;1.53;0.90;;;22.30;98.20;;;;;;5031232;28;20455;-78
2021/08/10 07:37:39;;;;;;;1.50;0.90;;;22.30;98.20;;;;;;5022620;28;20502;-79
2021/08/10 07:40:08;;;;;;;1.57;0.90;;;22.40;98.20;;;;;;5022853;28;20507;-80
2021/08/10 07:42:37;;;;;;;1.50;0.90;;;22.40;98.20;;;;;;5026888;28;20968;-79
2021/08/10 07:45:04;;;;;;;1.50;0.90;;;22.50;97.20;;;;;;5027569;28;20593;-80
2021/08/10 07:47:31;;;;;;;1.50;0.90;;;22.50;96.00;;;;;;5019593;28;20464;-80
2021/08/10 07:49:58;;;;;;;1.50;0.90;;;22.50;96.10;;;;;;5026609;28;20475;-80
2021/08/10 07:52:25;;;;;;;1.50;0.87;;;22.40;97.00;;;;;;5024491;28;20561;-80
2021/08/10 07:54:52;;;;;;;1.53;1.00;;;22.40;96.70;;;;;;5027596;28;21055;-80
2021/08/10 07:57:19;;;;;;;1.50;0.90;;;22.30;96.50;;;;;;5032633;28;20542;-80
2021/08/10 07:59:48;;;;;;;1.50;0.83;;;22.20;95.70;;;;;;5030631;28;20491;-80
2021/08/10 08:02:15;;;;;;;1.50;0.90;;;22.00;97.00;;;;;;5032889;28;20471;-80
2021/08/10 08:04:42;;;;;;;1.53;0.90;;;22.00;97.50;;;;;;5030003;28;20525;-79
2021/08/10 08:07:09;;;;;;;1.50;0.90;;;22.00;97.70;;;;;;5025524;28;20467;-79
2021/08/10 08:09:36;;;;;;;1.50;0.90;;;22.00;98.20;;;;;;5026147;28;20774;-79
2021/08/10 08:12:03;;;;;;;1.50;0.90;;;22.00;98.00;;;;;;5025345;28;20513;-80
2021/08/10 08:14:30;;;;;;;1.50;0.90;;;22.00;97.90;;;;;;5027161;28;20847;-80
2021/08/10 08:16:59;;;;;;;1.50;0.90;;;21.90;97.50;;;;;;5030804;28;20490;-80
2021/08/10 08:19:26;;;;;;;1.50;0.90;;;21.90;97.20;;;;;;5033895;28;20910;-78
2021/08/10 08:21:53;;;;;;;1.50;0.90;;;21.90;97.40;;;;;;5028583;28;20470;-80
2021/08/10 08:24:20;;;;;;;1.50;0.90;;;21.90;97.50;;;;;;5021775;28;20472;-79
2021/08/10 08:26:47;;;;;;;1.50;0.90;;;22.00;98.20;;;;;;5023379;28;20463;-80
2021/08/10 08:29:16;;;;;;;1.50;0.90;;;22.00;98.20;;;;;;5021787;28;20676;-80
2021/08/10 08:31:44;;;;;;;1.50;0.90;;;22.00;97.60;;;;;;5025354;28;20496;-79
2021/08/10 08:34:12;;;;;;;1.50;0.90;;;22.00;98.20;;;;;;5026224;28;20467;-77
2021/08/10 08:36:39;;;;;;;1.50;0.90;;;22.00;97.80;;;;;;5029487;28;20558;-78
2021/08/10 08:39:06;;;;;;;1.50;0.87;;;22.10;98.20;;;;;;5024634;28;20997;-79
2021/08/10 08:41:33;;;;;;;1.50;0.90;;;22.10;97.60;;;;;;5023232;28;20837;-78
2021/08/10 08:44:00;;;;;;;1.50;0.90;;;22.20;97.80;;;;;;5022084;28;20503;-79
2021/08/10 08:46:28;;;;;;;1.50;0.90;;;22.40;97.80;;;;;;5024422;28;20471;-78
2021/08/10 08:48:58;;;;;;;1.50;0.90;;;22.50;96.70;;;;;;5027440;28;20471;-78
2021/08/10 08:51:29;;;;;;;1.50;0.90;;;22.60;97.10;;;;;;5022301;28;20775;-78
2021/08/10 08:53:57;;;;;;;1.53;0.90;;;22.70;96.30;;;;;;5025764;28;20495;-78
2021/08/10 08:56:25;;;;;;;1.50;0.90;;;22.80;97.50;;;;;;5028712;28;20470;-78
2021/08/10 08:58:53;;;;;;;1.50;0.90;;;22.90;96.80;;;;;;5026249;28;21001;-78
2021/08/10 09:01:21;;;;;;;1.50;0.90;;;22.90;96.40;;;;;;5025618;28;20495;-77
2021/08/10 09:03:50;;;;;;;1.50;0.90;;;23.00;96.10;;;;;;5028982;28;20781;-77
2021/08/10 09:06:18;;;;;;;1.50;0.83;;;23.10;96.40;;;;;;5024738;28;20496;-79
2021/08/10 09:08:47;;;;;;;1.50;0.90;;;23.20;95.40;;;;;;5027219;28;20459;-79
2021/08/10 09:11:17;;;;;;;1.50;0.90;;;23.20;95.80;;;;;;5023562;28;20837;-78
2021/08/10 09:13:56;;;;;;;1.50;0.90;;;23.20;95.70;;;;;;5027364;28;20922;-80
2021/08/10 09:16:23;;;;;;;1.50;0.90;;;23.30;95.00;;;;;;5021568;28;20482;-78
2021/08/10 09:18:49;;;;;;;1.50;0.90;;;23.40;94.90;;;;;;5025857;28;20479;-77
2021/08/10 09:21:19;;;;;;;1.50;0.90;;;23.40;94.10;;;;;;5025083;28;20548;-77
2021/08/10 09:23:49;;;;;;;1.50;0.80;;;23.40;94.40;;;;;;5029448;28;20467;-77
2021/08/10 09:26:20;;;;;;;1.50;0.90;;;23.30;95.00;;;;;;5028089;28;20501;-78
2021/08/10 09:28:49;;;;;;;1.50;0.90;;;23.20;95.60;;;;;;5030009;28;20483;-79
2021/08/10 09:31:37;;;;;;;1.50;0.90;;;23.10;95.60;;;;;;5026336;28;20492;-77
2021/08/10 09:34:07;;;;;;;1.50;0.90;;;23.00;95.50;;;;;;5018511;28;20502;-77
2021/08/10 09:36:34;;;;;;;1.50;0.90;;;22.90;95.90;;;;;;5020951;28;20463;-78
2021/08/10 09:39:04;;;;;;;1.50;0.90;;;22.90;96.60;;;;;;5025200;28;20633;-78
2021/08/10 09:41:31;;;;;;;1.50;0.90;;;22.90;97.20;;;;;;5014136;28;20491;-78
2021/08/10 09:44:08;;;;;;;1.50;0.80;;;22.90;97.10;;;;;;5028662;28;20491;-78
2021/08/10 09:46:36;;;;;;;1.50;0.90;;;23.00;96.20;;;;;;5023946;28;20470;-78
2021/08/10 09:49:06;;;;;;;1.50;0.90;;;23.10;97.40;;;;;;5024998;28;20455;-77
2021/08/10 09:51:38;;;;;;;1.50;0.90;;;23.30;96.90;;;;;;5027253;28;20483;-77
2021/08/10 09:54:10;;;;;;;1.53;0.87;;;23.70;97.90;;;;;;5025417;28;20522;-78
2021/08/10 09:56:45;;;;;;;1.57;0.90;;;24.10;96.30;;;;;;5026766;28;20467;-80
2021/08/10 09:59:12;;;;;;;1.50;0.90;;;24.50;94.50;;;;;;5027415;28;20489;-80
2021/08/10 10:01:41;;;;;;;1.50;0.90;;;25.00;91.10;;;;;;5024666;28;20542;-78
2021/08/10 10:04:23;;;;;;;1.50;0.90;;;25.20;91.10;;;;;;5028314;28;20861;-77
2021/08/10 10:06:52;;;;;;;1.50;0.80;;;25.30;90.20;;;;;;5025568;28;21012;-78
2021/08/10 10:09:21;;;;;;;1.50;0.90;;;25.40;89.30;;;;;;5022062;28;20467;-78
2021/08/10 10:11:50;;;;;;;1.53;0.90;;;25.50;90.30;;;;;;5026892;28;20870;-79
2021/08/10 10:14:18;;;;;;;1.50;0.90;;;25.60;89.00;;;;;;5024535;28;20471;-78
2021/08/10 10:16:48;;;;;;;1.53;0.80;;;25.60;87.70;;;;;;5022839;28;20463;-79
2021/08/10 10:19:16;;;;;;;1.50;0.80;;;25.50;87.00;;;;;;5018634;28;20483;-78
2021/08/10 10:21:47;;;;;;;1.50;0.90;;;25.50;88.00;;;;;;5024893;28;20462;-78
2021/08/10 10:24:15;;;;;;;1.50;0.87;;;25.40;88.10;;;;;;5027351;28;20478;-78
2021/08/10 10:26:46;;;;;;;1.50;0.90;;;25.30;87.20;;;;;;5019615;28;21035;-78
2021/08/10 10:29:15;;;;;;;1.50;0.87;;;25.30;86.20;;;;;;5021114;28;20519;-77
2021/08/10 10:31:42;;;;;;;1.50;0.90;;;25.20;86.50;;;;;;5025020;28;20810;-77
2021/08/10 10:34:12;;;;;;;1.50;0.80;;;25.20;86.10;;;;;;5028169;28;20597;-78
2021/08/10 10:36:41;;;;;;;1.50;0.90;;;25.30;86.80;;;;;;5025954;28;20517;-78
2021/08/10 10:39:09;;;;;;;1.60;1.20;;;25.50;86.20;;;;;;5023983;28;20542;-77
2021/08/10 10:41:37;;;;;;;2.20;2.00;;;25.70;85.30;;;;;;5023004;28;20812;-78
2021/08/10 10:44:09;;;;;;;1.50;0.80;;;25.90;84.90;;;;;;5025701;28;20466;-78
2021/08/10 10:46:38;;;;;;;1.57;0.93;;;26.10;84.30;;;;;;5020023;28;20981;-77
2021/08/10 10:49:11;;;;;;;1.50;0.80;;;26.00;84.30;;;;;;5023268;28;20556;-77
2021/08/10 10:51:40;;;;;;;1.50;0.90;;;25.80;85.00;;;;;;5025358;28;20522;-77
2021/08/10 10:54:26;;;;;;;1.50;0.80;;;25.50;84.50;;;;;;5022761;28;20870;-77
2021/08/10 10:56:56;;;;;;;1.50;0.90;;;25.10;86.30;;;;;;5027441;28;20580;-78
2021/08/10 10:59:34;;;;;;;1.50;0.90;;;24.90;87.20;;;;;;5023655;28;20492;-76
2021/08/10 11:02:17;;;;;;;1.50;0.80;;;24.60;87.70;;;;;;5019340;28;20484;-78
2021/08/10 11:05:22;;;;;;;1.50;0.90;;;24.40;88.10;;;;;;5029890;28;20748;-78
2021/08/10 11:07:51;;;;;;;1.50;0.90;;;24.30;89.30;;;;;;5023193;28;20897;-78
2021/08/10 11:10:52;;;;;;;1.50;0.87;;;24.50;88.90;;;;;;5025141;28;20490;-78
2021/08/10 11:13:36;;;;;;;1.50;0.90;;;24.50;87.80;;;;;;4969657;28;20469;-77
2021/08/10 11:16:06;;;;;;;1.50;0.90;;;24.50;87.40;;;;;;5020180;28;20472;-78
2021/08/10 11:18:35;;;;;;;1.60;1.10;;;24.60;87.60;;;;;;5031709;28;20468;-77
2021/08/10 11:21:23;;;;;;;1.50;0.90;;;24.60;86.70;;;;;;5025404;28;20737;-77
2021/08/10 11:23:51;;;;;;;1.50;0.80;;;24.70;88.30;;;;;;5029109;28;20554;-77
2021/08/10 11:26:52;;;;;;;1.50;0.90;;;24.90;87.50;;;;;;5029278;28;20787;-76
2021/08/10 11:29:43;;;;;;;1.50;0.90;;;25.20;86.50;;;;;;5026464;28;20547;-77
2021/08/10 11:32:39;;;;;;;1.50;0.83;;;25.50;86.10;;;;;;5024283;28;21106;-76
2021/08/10 11:35:35;;;;;;;1.50;0.90;;;25.90;84.20;;;;;;5022613;28;20466;-78
2021/08/10 11:38:10;;;;;;;1.50;0.80;;;26.20;84.10;;;;;;4994303;28;20881;-76
2021/08/10 11:40:59;;;;;;;1.50;0.80;;;26.40;82.40;;;;;;5026296;28;20491;-76
2021/08/10 11:43:37;;;;;;;1.50;0.90;;;26.40;83.00;;;;;;5030135;28;20581;-77
2021/08/10 11:46:05;;;;;;;1.50;0.90;;;26.20;83.10;;;;;;5021503;28;20509;-77
2021/08/10 11:48:47;;;;;;;1.50;0.90;;;26.00;81.70;;;;;;5025066;28;20463;-77
2021/08/10 11:51:23;;;;;;;1.50;0.90;;;25.80;82.70;;;;;;5020717;28;20483;-78
2021/08/10 11:53:52;;;;;;;1.50;0.87;;;26.00;83.30;;;;;;5020556;28;20463;-79
2021/08/10 11:56:24;;;;;;;1.50;0.80;;;26.20;82.30;;;;;;5024468;28;20495;-77
2021/08/10 11:58:51;;;;;;;1.50;0.90;;;26.40;84.00;;;;;;5026201;28;20462;-77
2021/08/10 12:01:22;;;;;;;1.50;0.90;;;26.80;82.90;;;;;;5029701;28;20517;-80
2021/08/10 12:03:49;;;;;;;1.50;0.80;;;27.10;81.50;;;;;;5026752;28;20498;-77
2021/08/10 12:06:16;;;;;;;1.50;0.90;;;27.50;80.10;;;;;;5028960;28;20482;-77
2021/08/10 12:08:45;;;;;;;1.50;0.80;;;27.80;80.50;;;;;;5028567;28;20477;-77
2021/08/10 12:11:12;;;;;;;1.50;0.90;;;28.00;79.30;;;;;;5029230;28;20512;-79
2021/08/10 12:13:39;;;;;;;1.50;0.80;;;28.30;77.30;;;;;;5028551;28;20498;-78
2021/08/10 12:16:10;;;;;;;1.50;0.80;;;28.40;75.20;;;;;;5027748;28;20467;-77
2021/08/10 12:18:49;;;;;;;1.50;0.80;;;28.60;76.40;;;;;;5028917;28;21262;-77
2021/08/10 12:21:17;;;;;;;1.50;0.80;;;28.60;75.70;;;;;;5023976;28;20498;-78
2021/08/10 12:23:49;;;;;;;1.50;0.90;;;28.70;75.40;;;;;;5025823;28;20489;-79
2021/08/10 12:26:18;;;;;;;1.50;1.00;;;28.60;76.20;;;;;;5023449;28;20459;-78
2021/08/10 12:28:56;;;;;;;1.50;0.80;;;28.60;76.90;;;;;;5021001;28;20467;-77
2021/08/10 12:31:24;;;;;;;1.50;0.80;;;28.70;76.10;;;;;;5022204;28;20540;-77
2021/08/10 12:33:52;;;;;;;1.70;1.10;;;28.90;78.60;;;;;;5027940;28;20482;-76
2021/08/10 12:36:19;;;;;;;1.50;0.90;;;29.00;76.20;;;;;;5024928;28;20523;-76
2021/08/10 12:38:50;;;;;;;1.50;0.80;;;28.90;77.00;;;;;;5023631;28;20467;-78
2021/08/10 12:41:18;;;;;;;1.50;0.80;;;28.80;76.80;;;;;;5024969;28;20494;-76
2021/08/10 12:43:50;;;;;;;1.50;0.80;;;28.70;77.80;;;;;;5025204;28;21126;-77
2021/08/10 12:46:31;;;;;;;1.50;0.90;;;28.80;75.90;;;;;;5019442;28;20948;-77
2021/08/10 12:49:13;;;;;;;1.50;0.80;;;28.90;76.10;;;;;;5019821;28;20467;-77
2021/08/10 12:52:00;;;;;;;1.50;0.80;;;29.10;76.80;;;;;;5022818;28;20981;-78
2021/08/10 12:54:31;;;;;;;1.50;0.80;;;29.10;75.60;;;;;;5025145;28;20465;-79
2021/08/10 12:57:00;;;;;;;1.50;0.80;;;29.00;74.40;;;;;;5027596;28;20474;-76
2021/08/10 12:59:54;;;;;;;1.50;0.90;;;29.00;74.50;;;;;;5024503;28;20472;-77
2021/08/10 13:02:34;;;;;;;1.50;0.90;;;29.20;74.20;;;;;;5019821;28;20753;-78
2021/08/10 13:05:02;;;;;;;1.50;0.80;;;29.40;73.70;;;;;;5022967;28;20463;-77